sensor_id;sensor_type;location;lat;lon;timestamp;temperature;humidity
27368;DHT22;14839;48.106;11.618;2023-04-06T04:02:16;-2.90;94.60
27368;DHT22;14839;48.106;11.618;2023-04-06T04:04:42;-2.90;94.60
27368;DHT22;14839;48.106;11.618;2023-04-06T04:07:07;-2.90;94.60
27368;DHT22;14839;48.106;11.618;2023-04-06T04:09:33;-2.90;94.60
27368;DHT22;14839;48.106;11.618;2023-04-06T04:11:58;-2.90;94.60
27368;DHT22;14839;48.106;11.618;2023-04-06T04:14:24;-2.80;94.60
27368;DHT22;14839;48.106;11.618;2023-04-06T04:16:50;-2.80;94.60
27368;DHT22;14839;48.106;11.618;2023-04-06T04:19:16;-2.70;94.60
27368;DHT22;14839;48.106;11.618;2023-04-06T04:21:44;-2.70;94.60
27368;DHT22;14839;48.106;11.618;2023-04-06T04:24:10;-2.70;94.60
27368;DHT22;14839;48.106;11.618;2023-04-06T04:26:36;-2.70;94.60
27368;DHT22;14839;48.106;11.618;2023-04-06T04:29:01;-2.70;94.60
27368;DHT22;14839;48.106;11.618;2023-04-06T04:31:27;-2.70;94.60
27368;DHT22;14839;48.106;11.618;2023-04-06T04:33:52;-2.70;94.60
27368;DHT22;14839;48.106;11.618;2023-04-06T04:36:18;-2.70;94.60
27368;DHT22;14839;48.106;11.618;2023-04-06T04:38:43;-2.80;94.60
27368;DHT22;14839;48.106;11.618;2023-04-06T04:41:09;-2.80;94.60
27368;DHT22;14839;48.106;11.618;2023-04-06T04:43:34;-2.80;94.60
27368;DHT22;14839;48.106;11.618;2023-04-06T04:46:00;-2.80;94.60
27368;DHT22;14839;48.106;11.618;2023-04-06T04:48:25;-2.70;94.60
27368;DHT22;14839;48.106;11.618;2023-04-06T04:50:51;-2.70;94.60
27368;DHT22;14839;48.106;11.618;2023-04-06T04:53:17;-2.60;94.60
27368;DHT22;14839;48.106;11.618;2023-04-06T04:55:42;-2.60;94.60
27368;DHT22;14839;48.106;11.618;2023-04-06T04:58:08;-2.60;94.60
27368;DHT22;14839;48.106;11.618;2023-04-06T05:00:36;-2.60;94.60
27368;DHT22;14839;48.106;11.618;2023-04-06T05:03:02;-2.60;94.60
27368;DHT22;14839;48.106;11.618;2023-04-06T05:05:29;-2.50;94.60
27368;DHT22;14839;48.106;11.618;2023-04-06T05:07:54;-2.40;94.60
27368;DHT22;14839;48.106;11.618;2023-04-06T05:10:20;-2.20;94.60
27368;DHT22;14839;48.106;11.618;2023-04-06T05:15:16;-1.80;94.60
27368;DHT22;14839;48.106;11.618;2023-04-06T05:17:42;-1.10;94.60
27368;DHT22;14839;48.106;11.618;2023-04-06T05:22:11;-0.80;94.60
27368;DHT22;14839;48.106;11.618;2023-04-06T05:24:39;0.20;94.60
27368;DHT22;14839;48.106;11.618;2023-04-06T05:27:06;0.90;93.20
27368;DHT22;14839;48.106;11.618;2023-04-06T05:29:31;1.50;90.10
27368;DHT22;14839;48.106;11.618;2023-04-06T05:31:57;1.60;89.80
27368;DHT22;14839;48.106;11.618;2023-04-06T05:34:23;1.60;88.00
27368;DHT22;14839;48.106;11.618;2023-04-06T05:36:48;2.00;86.90
27368;DHT22;14839;48.106;11.618;2023-04-06T05:39:14;2.10;84.50
27368;DHT22;14839;48.106;11.618;2023-04-06T05:41:40;1.80;84.20
27368;DHT22;14839;48.106;11.618;2023-04-06T05:44:05;1.80;84.80
27368;DHT22;14839;48.106;11.618;2023-04-06T05:47:20;1.50;86.60
27368;DHT22;14839;48.106;11.618;2023-04-06T05:49:45;1.80;86.20
27368;DHT22;14839;48.106;11.618;2023-04-06T05:52:11;2.00;85.30
27368;DHT22;14839;48.106;11.618;2023-04-06T05:54:36;2.20;85.70
27368;DHT22;14839;48.106;11.618;2023-04-06T05:57:03;2.70;83.20
27368;DHT22;14839;48.106;11.618;2023-04-06T05:59:30;3.20;81.40
27368;DHT22;14839;48.106;11.618;2023-04-06T06:01:56;3.90;78.70
27368;DHT22;14839;48.106;11.618;2023-04-06T06:04:22;4.60;77.20
27368;DHT22;14839;48.106;11.618;2023-04-06T06:06:48;5.60;73.40
27368;DHT22;14839;48.106;11.618;2023-04-06T06:09:14;6.30;70.90
27368;DHT22;14839;48.106;11.618;2023-04-06T06:11:39;6.80;68.20
27368;DHT22;14839;48.106;11.618;2023-04-06T06:14:05;7.70;64.90
27368;DHT22;14839;48.106;11.618;2023-04-06T06:16:31;8.10;63.50
27368;DHT22;14839;48.106;11.618;2023-04-06T06:18:57;8.00;63.10
27368;DHT22;14839;48.106;11.618;2023-04-06T06:21:22;8.20;62.50
27368;DHT22;14839;48.106;11.618;2023-04-06T06:23:48;7.90;62.60
27368;DHT22;14839;48.106;11.618;2023-04-06T06:26:14;7.60;64.00
27368;DHT22;14839;48.106;11.618;2023-04-06T06:28:40;8.20;63.70
27368;DHT22;14839;48.106;11.618;2023-04-06T06:31:06;8.70;61.60
27368;DHT22;14839;48.106;11.618;2023-04-06T06:33:32;8.90;60.70
27368;DHT22;14839;48.106;11.618;2023-04-06T06:35:58;9.00;59.80
27368;DHT22;14839;48.106;11.618;2023-04-06T06:38:23;9.30;59.80
27368;DHT22;14839;48.106;11.618;2023-04-06T06:40:49;9.40;60.20
27368;DHT22;14839;48.106;11.618;2023-04-06T06:43:14;8.80;59.20
27368;DHT22;14839;48.106;11.618;2023-04-06T06:45:41;8.60;62.80
27368;DHT22;14839;48.106;11.618;2023-04-06T06:48:06;8.90;61.30
27368;DHT22;14839;48.106;11.618;2023-04-06T06:50:32;8.70;61.60
27368;DHT22;14839;48.106;11.618;2023-04-06T06:52:57;8.90;63.50
27368;DHT22;14839;48.106;11.618;2023-04-06T06:55:23;9.20;59.70
27368;DHT22;14839;48.106;11.618;2023-04-06T06:57:48;9.50;61.10
27368;DHT22;14839;48.106;11.618;2023-04-06T07:00:14;9.90;59.40
27368;DHT22;14839;48.106;11.618;2023-04-06T07:02:40;10.10;58.70
27368;DHT22;14839;48.106;11.618;2023-04-06T07:05:06;9.40;57.50
27368;DHT22;14839;48.106;11.618;2023-04-06T07:07:32;8.60;61.10
27368;DHT22;14839;48.106;11.618;2023-04-06T07:09:59;8.10;64.70
27368;DHT22;14839;48.106;11.618;2023-04-06T07:12:25;7.50;67.40
27368;DHT22;14839;48.106;11.618;2023-04-06T07:14:51;8.30;65.50
27368;DHT22;14839;48.106;11.618;2023-04-06T07:17:16;8.80;65.00
27368;DHT22;14839;48.106;11.618;2023-04-06T07:19:42;8.90;63.70
27368;DHT22;14839;48.106;11.618;2023-04-06T07:22:08;9.70;61.10
27368;DHT22;14839;48.106;11.618;2023-04-06T07:24:33;9.50;61.90
27368;DHT22;14839;48.106;11.618;2023-04-06T07:26:59;9.90;60.10
27368;DHT22;14839;48.106;11.618;2023-04-06T07:29:26;9.80;58.80
27368;DHT22;14839;48.106;11.618;2023-04-06T07:31:52;9.30;59.70
27368;DHT22;14839;48.106;11.618;2023-04-06T07:34:18;9.00;60.50
27368;DHT22;14839;48.106;11.618;2023-04-06T07:36:43;9.10;62.30
27368;DHT22;14839;48.106;11.618;2023-04-06T07:39:09;9.60;58.10
27368;DHT22;14839;48.106;11.618;2023-04-06T07:41:36;9.60;57.30
27368;DHT22;14839;48.106;11.618;2023-04-06T07:44:01;9.50;55.40
27368;DHT22;14839;48.106;11.618;2023-04-06T07:46:27;9.00;56.00
27368;DHT22;14839;48.106;11.618;2023-04-06T07:48:52;9.30;57.20
27368;DHT22;14839;48.106;11.618;2023-04-06T07:51:18;10.10;56.70
27368;DHT22;14839;48.106;11.618;2023-04-06T07:53:44;11.00;54.10
27368;DHT22;14839;48.106;11.618;2023-04-06T07:56:10;11.30;52.00
27368;DHT22;14839;48.106;11.618;2023-04-06T07:58:37;10.90;53.50
27368;DHT22;14839;48.106;11.618;2023-04-06T08:01:03;11.10;56.70
27368;DHT22;14839;48.106;11.618;2023-04-06T08:03:28;11.30;53.00
27368;DHT22;14839;48.106;11.618;2023-04-06T08:05:54;11.50;52.60
27368;DHT22;14839;48.106;11.618;2023-04-06T08:08:20;12.00;51.10
27368;DHT22;14839;48.106;11.618;2023-04-06T08:10:47;12.20;49.20
27368;DHT22;14839;48.106;11.618;2023-04-06T08:13:13;12.70;48.30
27368;DHT22;14839;48.106;11.618;2023-04-06T08:15:39;12.80;50.20
27368;DHT22;14839;48.106;11.618;2023-04-06T08:18:05;12.60;47.10
27368;DHT22;14839;48.106;11.618;2023-04-06T08:20:31;12.80;48.50
27368;DHT22;14839;48.106;11.618;2023-04-06T08:22:56;12.80;49.20
27368;DHT22;14839;48.106;11.618;2023-04-06T08:25:22;12.30;47.10
27368;DHT22;14839;48.106;11.618;2023-04-06T08:27:48;12.30;49.00
27368;DHT22;14839;48.106;11.618;2023-04-06T08:30:13;12.60;47.60
27368;DHT22;14839;48.106;11.618;2023-04-06T08:32:41;12.60;46.50
27368;DHT22;14839;48.106;11.618;2023-04-06T08:35:07;13.20;45.50
27368;DHT22;14839;48.106;11.618;2023-04-06T08:37:33;13.00;44.90
27368;DHT22;14839;48.106;11.618;2023-04-06T08:39:58;13.10;46.10
27368;DHT22;14839;48.106;11.618;2023-04-06T08:42:25;13.50;45.60
27368;DHT22;14839;48.106;11.618;2023-04-06T08:44:52;13.40;44.30
27368;DHT22;14839;48.106;11.618;2023-04-06T08:47:19;13.50;44.90
27368;DHT22;14839;48.106;11.618;2023-04-06T08:49:45;13.80;43.90
27368;DHT22;14839;48.106;11.618;2023-04-06T08:52:11;13.30;42.50
27368;DHT22;14839;48.106;11.618;2023-04-06T08:54:37;13.20;44.80
27368;DHT22;14839;48.106;11.618;2023-04-06T08:57:05;13.80;44.20
27368;DHT22;14839;48.106;11.618;2023-04-06T08:59:32;13.40;43.40
27368;DHT22;14839;48.106;11.618;2023-04-06T09:01:57;13.10;45.50
27368;DHT22;14839;48.106;11.618;2023-04-06T09:04:24;12.90;45.10
27368;DHT22;14839;48.106;11.618;2023-04-06T09:06:52;13.00;43.90
27368;DHT22;14839;48.106;11.618;2023-04-06T09:09:18;13.00;42.20
27368;DHT22;14839;48.106;11.618;2023-04-06T09:11:47;13.00;41.40
27368;DHT22;14839;48.106;11.618;2023-04-06T09:14:13;13.70;41.10
27368;DHT22;14839;48.106;11.618;2023-04-06T09:16:42;13.30;41.20
27368;DHT22;14839;48.106;11.618;2023-04-06T09:19:07;13.70;41.40
27368;DHT22;14839;48.106;11.618;2023-04-06T09:21:34;14.10;43.70
27368;DHT22;14839;48.106;11.618;2023-04-06T09:24:00;14.50;38.80
27368;DHT22;14839;48.106;11.618;2023-04-06T09:26:26;14.70;41.10
27368;DHT22;14839;48.106;11.618;2023-04-06T09:28:59;15.20;39.60
27368;DHT22;14839;48.106;11.618;2023-04-06T09:31:32;14.60;40.30
27368;DHT22;14839;48.106;11.618;2023-04-06T09:33:59;14.20;39.10
27368;DHT22;14839;48.106;11.618;2023-04-06T09:36:32;14.20;39.00
27368;DHT22;14839;48.106;11.618;2023-04-06T09:39:02;14.60;39.00
27368;DHT22;14839;48.106;11.618;2023-04-06T09:41:36;15.10;39.10
27368;DHT22;14839;48.106;11.618;2023-04-06T09:44:11;14.20;40.90
27368;DHT22;14839;48.106;11.618;2023-04-06T09:46:39;14.00;40.20
27368;DHT22;14839;48.106;11.618;2023-04-06T09:49:06;14.10;40.20
27368;DHT22;14839;48.106;11.618;2023-04-06T09:54:08;14.70;41.40
27368;DHT22;14839;48.106;11.618;2023-04-06T09:56:43;14.40;37.40
27368;DHT22;14839;48.106;11.618;2023-04-06T09:59:13;13.60;39.30
27368;DHT22;14839;48.106;11.618;2023-04-06T10:01:40;14.10;40.90
27368;DHT22;14839;48.106;11.618;2023-04-06T10:04:47;14.70;42.00
27368;DHT22;14839;48.106;11.618;2023-04-06T10:07:15;14.90;41.80
27368;DHT22;14839;48.106;11.618;2023-04-06T10:09:44;15.90;39.00
27368;DHT22;14839;48.106;11.618;2023-04-06T10:12:12;15.80;40.80
27368;DHT22;14839;48.106;11.618;2023-04-06T10:14:39;14.70;37.10
27368;DHT22;14839;48.106;11.618;2023-04-06T10:17:06;14.50;40.20
27368;DHT22;14839;48.106;11.618;2023-04-06T10:19:46;14.90;38.60
27368;DHT22;14839;48.106;11.618;2023-04-06T10:22:22;13.80;39.00
27368;DHT22;14839;48.106;11.618;2023-04-06T10:24:48;13.40;40.90
27368;DHT22;14839;48.106;11.618;2023-04-06T10:27:14;13.40;42.50
27368;DHT22;14839;48.106;11.618;2023-04-06T10:29:47;13.20;40.50
27368;DHT22;14839;48.106;11.618;2023-04-06T10:32:14;12.70;40.00
27368;DHT22;14839;48.106;11.618;2023-04-06T10:34:39;13.10;42.80
27368;DHT22;14839;48.106;11.618;2023-04-06T10:37:13;12.70;45.90
27368;DHT22;14839;48.106;11.618;2023-04-06T10:39:46;13.50;44.00
27368;DHT22;14839;48.106;11.618;2023-04-06T10:42:12;13.90;43.40
27368;DHT22;14839;48.106;11.618;2023-04-06T10:44:42;13.90;41.10
27368;DHT22;14839;48.106;11.618;2023-04-06T10:47:16;13.60;40.60
27368;DHT22;14839;48.106;11.618;2023-04-06T10:49:43;13.10;42.40
27368;DHT22;14839;48.106;11.618;2023-04-06T10:52:08;13.30;43.40
27368;DHT22;14839;48.106;11.618;2023-04-06T10:54:40;13.60;43.00
27368;DHT22;14839;48.106;11.618;2023-04-06T10:57:06;14.20;42.50
27368;DHT22;14839;48.106;11.618;2023-04-06T10:59:32;14.70;39.30
27368;DHT22;14839;48.106;11.618;2023-04-06T11:01:58;14.90;37.70
27368;DHT22;14839;48.106;11.618;2023-04-06T11:04:24;14.80;39.40
27368;DHT22;14839;48.106;11.618;2023-04-06T11:06:50;14.60;39.00
27368;DHT22;14839;48.106;11.618;2023-04-06T11:09:29;14.70;38.80
27368;DHT22;14839;48.106;11.618;2023-04-06T11:11:57;14.40;38.70
27368;DHT22;14839;48.106;11.618;2023-04-06T11:14:23;14.30;39.90
27368;DHT22;14839;48.106;11.618;2023-04-06T11:16:48;14.00;40.60
27368;DHT22;14839;48.106;11.618;2023-04-06T11:19:17;13.80;40.80
27368;DHT22;14839;48.106;11.618;2023-04-06T11:21:47;13.40;40.00
27368;DHT22;14839;48.106;11.618;2023-04-06T11:24:20;13.20;38.80
27368;DHT22;14839;48.106;11.618;2023-04-06T11:26:47;13.40;41.40
27368;DHT22;14839;48.106;11.618;2023-04-06T11:29:16;13.90;42.50
27368;DHT22;14839;48.106;11.618;2023-04-06T11:31:47;13.30;40.80
27368;DHT22;14839;48.106;11.618;2023-04-06T11:34:17;13.00;42.00
27368;DHT22;14839;48.106;11.618;2023-04-06T11:36:44;12.70;41.70
27368;DHT22;14839;48.106;11.618;2023-04-06T11:39:10;13.20;42.20
27368;DHT22;14839;48.106;11.618;2023-04-06T11:41:36;13.60;44.00
27368;DHT22;14839;48.106;11.618;2023-04-06T11:44:03;13.90;41.80
27368;DHT22;14839;48.106;11.618;2023-04-06T11:46:28;14.00;41.50
27368;DHT22;14839;48.106;11.618;2023-04-06T11:48:58;13.80;41.20
27368;DHT22;14839;48.106;11.618;2023-04-06T11:51:25;13.70;40.20
27368;DHT22;14839;48.106;11.618;2023-04-06T11:53:51;13.50;40.30
27368;DHT22;14839;48.106;11.618;2023-04-06T11:56:29;13.60;41.20
27368;DHT22;14839;48.106;11.618;2023-04-06T11:58:56;13.80;40.00
27368;DHT22;14839;48.106;11.618;2023-04-06T12:01:23;13.50;41.20
27368;DHT22;14839;48.106;11.618;2023-04-06T12:03:50;13.60;42.20
27368;DHT22;14839;48.106;11.618;2023-04-06T12:06:16;13.90;42.10
27368;DHT22;14839;48.106;11.618;2023-04-06T12:08:42;14.10;40.80
27368;DHT22;14839;48.106;11.618;2023-04-06T12:11:08;14.00;40.50
27368;DHT22;14839;48.106;11.618;2023-04-06T12:13:33;14.10;38.80
27368;DHT22;14839;48.106;11.618;2023-04-06T12:15:59;14.20;39.30
27368;DHT22;14839;48.106;11.618;2023-04-06T12:18:24;13.80;40.30
27368;DHT22;14839;48.106;11.618;2023-04-06T12:20:51;13.80;41.50
27368;DHT22;14839;48.106;11.618;2023-04-06T12:23:18;14.00;42.40
27368;DHT22;14839;48.106;11.618;2023-04-06T12:25:43;14.10;40.60
27368;DHT22;14839;48.106;11.618;2023-04-06T12:28:09;14.20;42.40
27368;DHT22;14839;48.106;11.618;2023-04-06T12:30:35;14.20;40.60
27368;DHT22;14839;48.106;11.618;2023-04-06T12:33:01;14.00;39.10
27368;DHT22;14839;48.106;11.618;2023-04-06T12:35:26;13.50;40.50
27368;DHT22;14839;48.106;11.618;2023-04-06T12:37:52;13.40;43.40
27368;DHT22;14839;48.106;11.618;2023-04-06T12:40:18;13.40;45.10
27368;DHT22;14839;48.106;11.618;2023-04-06T12:42:43;13.40;41.50
27368;DHT22;14839;48.106;11.618;2023-04-06T12:45:11;13.10;42.00
27368;DHT22;14839;48.106;11.618;2023-04-06T12:47:36;12.90;43.10
27368;DHT22;14839;48.106;11.618;2023-04-06T12:50:03;12.90;42.00
27368;DHT22;14839;48.106;11.618;2023-04-06T12:52:29;12.90;41.50
27368;DHT22;14839;48.106;11.618;2023-04-06T12:54:56;12.70;40.00
27368;DHT22;14839;48.106;11.618;2023-04-06T12:57:23;12.50;42.70
27368;DHT22;14839;48.106;11.618;2023-04-06T12:59:49;12.70;42.10
27368;DHT22;14839;48.106;11.618;2023-04-06T13:02:15;12.80;41.20
27368;DHT22;14839;48.106;11.618;2023-04-06T13:04:41;13.10;41.40
27368;DHT22;14839;48.106;11.618;2023-04-06T13:07:07;13.40;42.40
27368;DHT22;14839;48.106;11.618;2023-04-06T13:09:32;13.50;42.10
27368;DHT22;14839;48.106;11.618;2023-04-06T13:11:58;13.60;41.80
27368;DHT22;14839;48.106;11.618;2023-04-06T13:14:23;13.80;40.30
27368;DHT22;14839;48.106;11.618;2023-04-06T13:16:49;13.70;39.70
27368;DHT22;14839;48.106;11.618;2023-04-06T13:19:14;13.40;38.60
27368;DHT22;14839;48.106;11.618;2023-04-06T13:21:40;13.30;40.80
27368;DHT22;14839;48.106;11.618;2023-04-06T13:24:06;13.40;42.00
27368;DHT22;14839;48.106;11.618;2023-04-06T13:26:31;13.50;39.90
27368;DHT22;14839;48.106;11.618;2023-04-06T13:28:59;13.60;40.50
27368;DHT22;14839;48.106;11.618;2023-04-06T13:31:26;13.70;43.10
27368;DHT22;14839;48.106;11.618;2023-04-06T13:33:52;13.90;40.90
27368;DHT22;14839;48.106;11.618;2023-04-06T13:36:17;14.00;42.10
27368;DHT22;14839;48.106;11.618;2023-04-06T13:38:43;14.00;40.60
27368;DHT22;14839;48.106;11.618;2023-04-06T13:41:08;14.20;39.30
27368;DHT22;14839;48.106;11.618;2023-04-06T13:43:34;13.80;39.40
27368;DHT22;14839;48.106;11.618;2023-04-06T13:46:00;13.40;40.80
27368;DHT22;14839;48.106;11.618;2023-04-06T13:48:26;12.90;41.50
27368;DHT22;14839;48.106;11.618;2023-04-06T13:50:52;12.70;44.80
27368;DHT22;14839;48.106;11.618;2023-04-06T13:53:18;12.70;44.20
27368;DHT22;14839;48.106;11.618;2023-04-06T13:55:43;12.90;44.80
27368;DHT22;14839;48.106;11.618;2023-04-06T13:58:09;13.00;43.90
27368;DHT22;14839;48.106;11.618;2023-04-06T14:00:35;12.90;41.20
27368;DHT22;14839;48.106;11.618;2023-04-06T14:03:01;12.90;41.80
27368;DHT22;14839;48.106;11.618;2023-04-06T14:05:31;13.00;41.10
27368;DHT22;14839;48.106;11.618;2023-04-06T14:07:57;13.00;40.90
27368;DHT22;14839;48.106;11.618;2023-04-06T14:10:22;12.90;39.30
27368;DHT22;14839;48.106;11.618;2023-04-06T14:12:49;12.90;41.50
27368;DHT22;14839;48.106;11.618;2023-04-06T14:15:15;12.50;43.00
27368;DHT22;14839;48.106;11.618;2023-04-06T14:17:40;12.40;43.90
27368;DHT22;14839;48.106;11.618;2023-04-06T14:20:07;12.40;41.80
27368;DHT22;14839;48.106;11.618;2023-04-06T14:22:33;12.20;43.60
27368;DHT22;14839;48.106;11.618;2023-04-06T14:24:58;12.20;43.60
27368;DHT22;14839;48.106;11.618;2023-04-06T14:27:24;12.10;42.10
27368;DHT22;14839;48.106;11.618;2023-04-06T14:29:50;12.30;42.00
27368;DHT22;14839;48.106;11.618;2023-04-06T14:32:16;12.60;44.60
27368;DHT22;14839;48.106;11.618;2023-04-06T14:34:42;12.70;43.40
27368;DHT22;14839;48.106;11.618;2023-04-06T14:37:07;13.00;43.10
27368;DHT22;14839;48.106;11.618;2023-04-06T14:39:33;12.90;42.00
27368;DHT22;14839;48.106;11.618;2023-04-06T14:41:58;13.30;42.20
27368;DHT22;14839;48.106;11.618;2023-04-06T14:44:24;13.20;43.30
27368;DHT22;14839;48.106;11.618;2023-04-06T14:46:49;13.10;43.10
27368;DHT22;14839;48.106;11.618;2023-04-06T14:49:15;13.00;44.80
27368;DHT22;14839;48.106;11.618;2023-04-06T14:51:41;12.90;42.50
27368;DHT22;14839;48.106;11.618;2023-04-06T14:54:07;12.90;42.50
27368;DHT22;14839;48.106;11.618;2023-04-06T14:56:32;12.90;43.10
27368;DHT22;14839;48.106;11.618;2023-04-06T14:58:58;12.80;42.20
27368;DHT22;14839;48.106;11.618;2023-04-06T15:01:24;12.70;44.60
27368;DHT22;14839;48.106;11.618;2023-04-06T15:03:50;12.50;42.20
27368;DHT22;14839;48.106;11.618;2023-04-06T15:06:17;12.30;44.50
27368;DHT22;14839;48.106;11.618;2023-04-06T15:08:43;12.20;45.60
27368;DHT22;14839;48.106;11.618;2023-04-06T15:11:10;12.10;44.50
27368;DHT22;14839;48.106;11.618;2023-04-06T15:13:36;12.10;44.80
27368;DHT22;14839;48.106;11.618;2023-04-06T15:16:01;11.80;44.60
27368;DHT22;14839;48.106;11.618;2023-04-06T15:18:27;11.80;44.90
27368;DHT22;14839;48.106;11.618;2023-04-06T15:20:52;11.90;43.70
27368;DHT22;14839;48.106;11.618;2023-04-06T15:23:18;11.90;44.90
27368;DHT22;14839;48.106;11.618;2023-04-06T15:25:43;11.80;45.20
27368;DHT22;14839;48.106;11.618;2023-04-06T15:28:09;11.90;44.90
27368;DHT22;14839;48.106;11.618;2023-04-06T15:30:35;12.10;44.30
27368;DHT22;14839;48.106;11.618;2023-04-06T15:33:01;12.20;44.20
27368;DHT22;14839;48.106;11.618;2023-04-06T15:35:31;12.10;45.50
27368;DHT22;14839;48.106;11.618;2023-04-06T15:37:57;12.10;44.30
27368;DHT22;14839;48.106;11.618;2023-04-06T15:40:23;12.10;44.20
27368;DHT22;14839;48.106;11.618;2023-04-06T15:42:49;12.00;42.10
27368;DHT22;14839;48.106;11.618;2023-04-06T15:45:16;12.10;43.10
27368;DHT22;14839;48.106;11.618;2023-04-06T15:47:43;12.00;43.30
27368;DHT22;14839;48.106;11.618;2023-04-06T15:50:10;11.90;43.10
27368;DHT22;14839;48.106;11.618;2023-04-06T15:52:36;11.70;42.10
27368;DHT22;14839;48.106;11.618;2023-04-06T15:55:04;11.60;43.40
27368;DHT22;14839;48.106;11.618;2023-04-06T15:57:30;11.40;44.20
27368;DHT22;14839;48.106;11.618;2023-04-06T15:59:57;11.40;43.60
27368;DHT22;14839;48.106;11.618;2023-04-06T16:02:23;11.50;44.20
27368;DHT22;14839;48.106;11.618;2023-04-06T16:04:53;11.60;41.50
27368;DHT22;14839;48.106;11.618;2023-04-06T16:07:19;11.40;43.00
27368;DHT22;14839;48.106;11.618;2023-04-06T16:09:45;11.50;42.00
27368;DHT22;14839;48.106;11.618;2023-04-06T16:12:10;11.40;43.40
27368;DHT22;14839;48.106;11.618;2023-04-06T16:14:36;11.40;43.10
27368;DHT22;14839;48.106;11.618;2023-04-06T16:17:02;11.40;43.00
27368;DHT22;14839;48.106;11.618;2023-04-06T16:19:27;11.20;43.00
27368;DHT22;14839;48.106;11.618;2023-04-06T16:21:53;11.10;43.30
27368;DHT22;14839;48.106;11.618;2023-04-06T16:24:18;10.90;43.70
27368;DHT22;14839;48.106;11.618;2023-04-06T16:26:45;10.80;45.40
27368;DHT22;14839;48.106;11.618;2023-04-06T16:29:11;10.80;45.90
27368;DHT22;14839;48.106;11.618;2023-04-06T16:31:37;10.90;44.20
27368;DHT22;14839;48.106;11.618;2023-04-06T16:34:03;10.90;44.20
27368;DHT22;14839;48.106;11.618;2023-04-06T16:36:29;10.80;44.00
27368;DHT22;14839;48.106;11.618;2023-04-06T16:38:57;10.70;44.60
27368;DHT22;14839;48.106;11.618;2023-04-06T16:41:23;10.70;45.40
27368;DHT22;14839;48.106;11.618;2023-04-06T16:43:49;10.60;45.20
27368;DHT22;14839;48.106;11.618;2023-04-06T16:46:15;10.60;46.10
27368;DHT22;14839;48.106;11.618;2023-04-06T16:48:41;10.60;45.90
27368;DHT22;14839;48.106;11.618;2023-04-06T16:51:07;10.50;44.60
27368;DHT22;14839;48.106;11.618;2023-04-06T16:53:37;10.50;45.80
27368;DHT22;14839;48.106;11.618;2023-04-06T16:56:06;10.40;45.60
27368;DHT22;14839;48.106;11.618;2023-04-06T16:58:33;10.30;46.20
27368;DHT22;14839;48.106;11.618;2023-04-06T17:00:59;10.20;46.70
27368;DHT22;14839;48.106;11.618;2023-04-06T17:03:26;10.10;47.30
27368;DHT22;14839;48.106;11.618;2023-04-06T17:05:52;10.00;48.50
27368;DHT22;14839;48.106;11.618;2023-04-06T17:08:17;9.90;48.20
27368;DHT22;14839;48.106;11.618;2023-04-06T17:10:43;9.80;49.20
27368;DHT22;14839;48.106;11.618;2023-04-06T17:13:08;9.70;48.30
27368;DHT22;14839;48.106;11.618;2023-04-06T17:15:34;9.60;48.30
27368;DHT22;14839;48.106;11.618;2023-04-06T17:18:00;9.50;49.00
27368;DHT22;14839;48.106;11.618;2023-04-06T17:20:26;9.40;49.20
27368;DHT22;14839;48.106;11.618;2023-04-06T17:22:52;9.30;49.00
27368;DHT22;14839;48.106;11.618;2023-04-06T17:25:17;9.20;49.60
27368;DHT22;14839;48.106;11.618;2023-04-06T17:27:43;9.10;49.90
27368;DHT22;14839;48.106;11.618;2023-04-06T17:30:09;9.00;49.50
27368;DHT22;14839;48.106;11.618;2023-04-06T17:32:35;8.90;49.90
27368;DHT22;14839;48.106;11.618;2023-04-06T17:35:01;8.80;50.70
27368;DHT22;14839;48.106;11.618;2023-04-06T17:37:27;8.70;50.70
27368;DHT22;14839;48.106;11.618;2023-04-06T17:39:53;8.50;51.40
27368;DHT22;14839;48.106;11.618;2023-04-06T17:42:19;8.40;52.00
27368;DHT22;14839;48.106;11.618;2023-04-06T17:44:45;8.30;52.00
27368;DHT22;14839;48.106;11.618;2023-04-06T17:47:14;8.20;52.70
27368;DHT22;14839;48.106;11.618;2023-04-06T17:49:40;8.10;53.50
27368;DHT22;14839;48.106;11.618;2023-04-06T17:52:05;8.00;53.00
27368;DHT22;14839;48.106;11.618;2023-04-06T17:54:35;7.90;53.30
27368;DHT22;14839;48.106;11.618;2023-04-06T17:57:01;7.70;53.50
27368;DHT22;14839;48.106;11.618;2023-04-06T17:59:28;7.60;54.40
27368;DHT22;14839;48.106;11.618;2023-04-06T18:01:54;7.50;55.40
27368;DHT22;14839;48.106;11.618;2023-04-06T18:04:20;7.40;56.10
27368;DHT22;14839;48.106;11.618;2023-04-06T18:06:45;7.30;56.40
27368;DHT22;14839;48.106;11.618;2023-04-06T18:09:11;7.20;58.10
27368;DHT22;14839;48.106;11.618;2023-04-06T18:11:37;7.10;58.70
27368;DHT22;14839;48.106;11.618;2023-04-06T18:14:06;7.00;59.70
27368;DHT22;14839;48.106;11.618;2023-04-06T18:16:33;6.90;59.40
27368;DHT22;14839;48.106;11.618;2023-04-06T18:18:59;6.80;59.20
27368;DHT22;14839;48.106;11.618;2023-04-06T18:21:25;6.90;58.90
27368;DHT22;14839;48.106;11.618;2023-04-06T18:23:52;6.80;58.90
27368;DHT22;14839;48.106;11.618;2023-04-06T18:26:18;6.80;59.50
27368;DHT22;14839;48.106;11.618;2023-04-06T18:28:46;6.70;60.10
27368;DHT22;14839;48.106;11.618;2023-04-06T18:31:12;6.60;60.40
27368;DHT22;14839;48.106;11.618;2023-04-06T18:33:37;6.50;61.00
27368;DHT22;14839;48.106;11.618;2023-04-06T18:36:03;6.50;62.20
27368;DHT22;14839;48.106;11.618;2023-04-06T18:38:29;6.30;63.50
27368;DHT22;14839;48.106;11.618;2023-04-06T18:40:54;6.20;63.50
27368;DHT22;14839;48.106;11.618;2023-04-06T18:43:20;6.10;63.70
27368;DHT22;14839;48.106;11.618;2023-04-06T18:45:46;6.00;64.60
27368;DHT22;14839;48.106;11.618;2023-04-06T18:48:12;5.90;65.00
27368;DHT22;14839;48.106;11.618;2023-04-06T18:50:38;5.80;64.60
27368;DHT22;14839;48.106;11.618;2023-04-06T18:53:04;5.70;67.10
27368;DHT22;14839;48.106;11.618;2023-04-06T18:55:33;5.70;67.40
27368;DHT22;14839;48.106;11.618;2023-04-06T18:57:59;5.60;68.80
27368;DHT22;14839;48.106;11.618;2023-04-06T19:00:24;5.50;69.10
27368;DHT22;14839;48.106;11.618;2023-04-06T19:02:50;5.50;69.70
27368;DHT22;14839;48.106;11.618;2023-04-06T19:07:51;5.40;70.40
27368;DHT22;14839;48.106;11.618;2023-04-06T19:10:17;5.30;71.00
27368;DHT22;14839;48.106;11.618;2023-04-06T19:12:43;5.20;71.20
27368;DHT22;14839;48.106;11.618;2023-04-06T19:15:09;5.10;72.10
27368;DHT22;14839;48.106;11.618;2023-04-06T19:17:35;5.00;71.90
27368;DHT22;14839;48.106;11.618;2023-04-06T19:20:02;4.90;72.80
27368;DHT22;14839;48.106;11.618;2023-04-06T19:22:27;4.80;73.00
27368;DHT22;14839;48.106;11.618;2023-04-06T19:24:53;4.70;72.50
27368;DHT22;14839;48.106;11.618;2023-04-06T19:27:19;4.60;72.80